createdAt,value
2023-05-23T00:01:10.325Z,4.72
2023-05-23T00:03:37.517Z,3.75
2023-05-23T00:06:07.264Z,4.22
2023-05-23T00:08:33.862Z,3.90
2023-05-23T00:11:00.686Z,3.38
2023-05-23T00:13:27.266Z,4.78
2023-05-23T00:15:53.840Z,4.18
2023-05-23T00:18:20.518Z,4.57
2023-05-23T00:20:47.170Z,4.32
2023-05-23T00:23:18.973Z,4.25
2023-05-23T00:25:53.069Z,3.60
2023-05-23T00:28:20.381Z,3.90
2023-05-23T00:30:47.299Z,3.67
2023-05-23T00:33:14.584Z,2.38
2023-05-23T00:35:44.360Z,3.28
2023-05-23T00:38:11.683Z,2.95
2023-05-23T00:40:38.393Z,4.07
2023-05-23T00:43:05.034Z,3.28
2023-05-23T00:45:31.884Z,3.33
2023-05-23T00:48:00.292Z,3.80
2023-05-23T00:50:32.072Z,3.38
2023-05-23T00:53:01.287Z,3.70
2023-05-23T00:55:29.117Z,3.63
2023-05-23T00:57:57.394Z,3.90
2023-05-23T01:00:26.102Z,3.80
2023-05-23T01:02:53.576Z,4.90
2023-05-23T01:05:22.683Z,3.58
2023-05-23T01:07:51.149Z,4.07
2023-05-23T01:10:22.093Z,3.40
2023-05-23T01:12:48.610Z,3.50
2023-05-23T01:15:21.628Z,3.25
2023-05-23T01:18:30.563Z,3.20
2023-05-23T01:21:06.668Z,3.70
2023-05-23T01:23:47.327Z,3.05
2023-05-23T01:26:19.798Z,2.67
2023-05-23T01:28:50.183Z,2.10
2023-05-23T01:31:18.554Z,3.05
2023-05-23T01:33:46.415Z,1.92
2023-05-23T01:36:15.120Z,3.03
2023-05-23T01:38:41.890Z,2.20
2023-05-23T01:41:08.590Z,2.25
2023-05-23T01:43:35.495Z,2.50
2023-05-23T01:46:04.279Z,2.05
2023-05-23T01:48:31.772Z,2.47
2023-05-23T01:50:59.071Z,2.72
2023-05-23T01:53:26.712Z,2.38
2023-05-23T01:55:53.970Z,2.17
2023-05-23T01:58:21.022Z,2.65
2023-05-23T02:00:47.759Z,2.40
2023-05-23T02:03:14.594Z,2.63
2023-05-23T02:05:41.596Z,2.58
2023-05-23T02:08:08.399Z,2.97
2023-05-23T02:10:34.990Z,3.28
2023-05-23T02:13:01.588Z,2.47
2023-05-23T02:15:28.130Z,3.17
2023-05-23T02:17:54.724Z,2.83
2023-05-23T02:20:21.390Z,2.80
2023-05-23T02:22:48.028Z,3.70
2023-05-23T02:25:15.904Z,2.90
2023-05-23T02:27:42.586Z,2.60
2023-05-23T02:30:09.690Z,2.60
2023-05-23T02:32:38.027Z,2.70
2023-05-23T02:35:06.236Z,2.92
2023-05-23T02:37:32.940Z,3.75
2023-05-23T02:39:59.513Z,4.75
2023-05-23T02:42:26.160Z,3.63
2023-05-23T02:44:52.694Z,3.47
2023-05-23T02:47:19.270Z,2.65
2023-05-23T02:49:46.011Z,2.63
2023-05-23T02:52:13.857Z,3.47
2023-05-23T02:54:41.072Z,2.78
2023-05-23T02:57:08.991Z,3.05
2023-05-23T02:59:35.586Z,2.60
2023-05-23T03:02:02.193Z,3.85
2023-05-23T03:04:29.616Z,4.28
2023-05-23T03:06:56.575Z,4.35
2023-05-23T03:09:23.176Z,4.38
2023-05-23T03:11:49.751Z,4.55
2023-05-23T03:14:16.510Z,4.88
2023-05-23T03:16:43.191Z,4.82
2023-05-23T03:19:09.880Z,5.32
2023-05-23T03:21:36.412Z,3.90
2023-05-23T03:24:03.463Z,4.05
2023-05-23T03:26:30.666Z,4.05
2023-05-23T03:28:57.272Z,4.97
2023-05-23T03:31:23.841Z,4.32
2023-05-23T03:33:50.775Z,4.78
2023-05-23T03:36:17.438Z,4.43
2023-05-23T03:38:43.990Z,4.13
2023-05-23T03:41:11.209Z,3.88
2023-05-23T03:43:37.747Z,3.47
2023-05-23T03:46:04.333Z,3.42
2023-05-23T03:48:30.979Z,3.40
2023-05-23T03:50:57.620Z,2.55
2023-05-23T03:53:24.184Z,3.10
2023-05-23T03:55:50.805Z,3.38
2023-05-23T03:58:17.404Z,4.20
2023-05-23T04:00:43.960Z,3.55
2023-05-23T04:03:11.677Z,4.00
2023-05-23T04:05:38.400Z,3.47
2023-05-23T04:08:05.149Z,3.60
2023-05-23T04:10:31.709Z,3.65
2023-05-23T04:12:58.864Z,3.33
2023-05-23T04:15:25.816Z,3.90
2023-05-23T04:17:52.466Z,4.80
2023-05-23T04:20:19.225Z,3.95
2023-05-23T04:22:45.922Z,4.00
2023-05-23T04:25:12.549Z,4.28
2023-05-23T04:27:42.181Z,4.35
2023-05-23T04:30:09.987Z,3.53
2023-05-23T04:32:38.307Z,3.22
2023-05-23T04:35:05.263Z,3.60
2023-05-23T04:37:33.062Z,3.90
2023-05-23T04:40:03.850Z,4.22
2023-05-23T04:42:30.507Z,3.33
2023-05-23T04:44:58.268Z,3.75
2023-05-23T04:47:28.117Z,3.55
2023-05-23T04:49:56.294Z,4.32
2023-05-23T04:52:23.334Z,3.72
2023-05-23T04:54:49.924Z,4.35
2023-05-23T04:57:17.128Z,3.53
2023-05-23T04:59:43.803Z,4.05
2023-05-23T05:02:10.445Z,3.80
2023-05-23T05:04:36.987Z,3.88
2023-05-23T05:07:03.686Z,4.00
2023-05-23T05:09:31.573Z,4.10
2023-05-23T05:11:59.207Z,4.50
2023-05-23T05:14:27.350Z,4.47
2023-05-23T05:16:57.841Z,4.60
2023-05-23T05:19:24.683Z,5.25
2023-05-23T05:21:51.335Z,4.38
2023-05-23T05:24:18.435Z,5.35
2023-05-23T05:26:45.005Z,5.47
2023-05-23T05:29:11.572Z,4.78
2023-05-23T05:31:38.348Z,4.93
2023-05-23T05:34:04.989Z,4.25
2023-05-23T05:36:32.501Z,3.88
2023-05-23T05:38:59.270Z,4.45
2023-05-23T05:41:26.910Z,4.18
2023-05-23T05:43:53.965Z,3.80
2023-05-23T05:46:20.882Z,3.80
2023-05-23T05:48:47.567Z,6.15
2023-05-23T05:51:14.206Z,5.35
2023-05-23T05:53:40.942Z,4.55
2023-05-23T05:56:09.329Z,4.47
2023-05-23T05:58:36.185Z,3.70
2023-05-23T06:01:02.853Z,4.63
2023-05-23T06:03:29.600Z,3.55
2023-05-23T06:05:56.246Z,4.15
2023-05-23T06:08:23.018Z,4.50
2023-05-23T06:10:49.589Z,4.22
2023-05-23T06:13:16.186Z,4.65
2023-05-23T06:15:43.246Z,4.30
2023-05-23T06:18:10.250Z,4.70
2023-05-23T06:20:36.859Z,4.25
2023-05-23T06:23:05.658Z,3.88
2023-05-23T06:25:32.517Z,4.35
2023-05-23T06:27:59.500Z,4.72
2023-05-23T06:30:26.060Z,4.50
2023-05-23T06:32:52.705Z,4.93
2023-05-23T06:35:19.321Z,4.30
2023-05-23T06:37:46.127Z,4.85
2023-05-23T06:40:14.550Z,4.80
2023-05-23T06:42:41.711Z,4.30
2023-05-23T06:45:09.306Z,4.25
2023-05-23T06:47:35.870Z,4.00
2023-05-23T06:50:02.996Z,4.47
2023-05-23T06:52:29.592Z,4.22
2023-05-23T06:54:56.101Z,4.45
2023-05-23T06:57:22.712Z,3.67
2023-05-23T06:59:49.309Z,3.58
2023-05-23T07:02:15.989Z,3.97
2023-05-23T07:04:42.541Z,3.70
2023-05-23T07:07:09.096Z,4.00
2023-05-23T07:09:35.677Z,3.38
2023-05-23T07:12:02.278Z,4.20
2023-05-23T07:14:28.864Z,4.28
2023-05-23T07:16:55.508Z,4.13
2023-05-23T07:19:22.111Z,3.58
2023-05-23T07:21:48.754Z,4.57
2023-05-23T07:24:15.467Z,3.65
2023-05-23T07:26:42.084Z,4.18
2023-05-23T07:29:08.762Z,4.22
2023-05-23T07:31:35.548Z,3.72
2023-05-23T07:34:02.705Z,3.67
2023-05-23T07:36:34.045Z,3.60
2023-05-23T07:39:01.754Z,3.35
2023-05-23T07:41:28.351Z,4.25
2023-05-23T07:43:54.989Z,3.78
2023-05-23T07:46:22.997Z,3.53
2023-05-23T07:48:49.703Z,3.60
2023-05-23T07:51:21.385Z,3.85
2023-05-23T07:53:48.144Z,4.20
2023-05-23T07:56:14.762Z,2.70
2023-05-23T07:58:41.408Z,3.10
2023-05-23T08:01:08.112Z,4.07
2023-05-23T08:03:34.656Z,3.80
2023-05-23T08:06:01.229Z,3.97
2023-05-23T08:08:27.872Z,4.00
2023-05-23T08:10:54.407Z,4.05
2023-05-23T08:13:21.028Z,3.83
2023-05-23T08:15:47.570Z,3.00
2023-05-23T08:18:14.281Z,3.70
2023-05-23T08:20:41.158Z,3.40
2023-05-23T08:23:07.915Z,3.50
2023-05-23T08:25:34.839Z,3.78
2023-05-23T08:28:01.871Z,3.75
2023-05-23T08:30:29.103Z,3.42
2023-05-23T08:32:57.179Z,3.40
2023-05-23T08:35:24.434Z,3.33
2023-05-23T08:37:52.367Z,3.20
2023-05-23T08:40:21.483Z,2.65
2023-05-23T08:42:49.680Z,2.85
2023-05-23T08:45:17.225Z,2.88
2023-05-23T08:47:45.889Z,3.50
2023-05-23T08:50:14.982Z,3.45
2023-05-23T08:52:57.943Z,3.00
2023-05-23T08:55:28.320Z,2.88
2023-05-23T08:57:56.326Z,3.13
2023-05-23T09:00:25.291Z,3.50
2023-05-23T09:02:52.751Z,3.10
2023-05-23T09:05:19.638Z,3.10
2023-05-23T09:07:51.156Z,2.75
2023-05-23T09:10:22.416Z,2.60
2023-05-23T09:12:49.700Z,3.05
2023-05-23T09:15:17.262Z,2.72
2023-05-23T09:17:45.000Z,2.90
2023-05-23T09:20:16.514Z,3.40
2023-05-23T09:22:48.258Z,2.97
2023-05-23T09:25:15.610Z,2.42
2023-05-23T09:27:44.970Z,2.90
2023-05-23T09:30:13.896Z,2.65
2023-05-23T09:32:40.722Z,2.90
2023-05-23T09:35:08.439Z,2.72
2023-05-23T09:37:46.113Z,2.85
2023-05-23T09:40:14.732Z,2.90
2023-05-23T09:42:46.323Z,2.75
2023-05-23T09:45:14.468Z,3.13
2023-05-23T09:47:52.710Z,2.83
2023-05-23T09:50:20.276Z,3.10
2023-05-23T09:52:47.278Z,2.65
2023-05-23T09:55:14.851Z,2.72
2023-05-23T09:57:43.295Z,2.90
2023-05-23T10:00:11.592Z,2.53
2023-05-23T10:03:08.460Z,2.67
2023-05-23T10:05:43.026Z,2.60
2023-05-23T10:08:14.611Z,2.50
2023-05-23T10:11:16.968Z,2.60
2023-05-23T10:13:45.218Z,2.60
2023-05-23T10:16:27.435Z,2.80
2023-05-23T10:18:58.799Z,2.63
2023-05-23T10:21:32.249Z,2.53
2023-05-23T10:24:00.683Z,2.92
2023-05-23T10:26:28.555Z,3.25
2023-05-23T10:28:57.283Z,2.92
2023-05-23T10:31:25.170Z,2.78
2023-05-23T10:34:11.997Z,2.88
2023-05-23T10:36:52.561Z,2.33
2023-05-23T10:39:33.304Z,2.90
2023-05-23T10:42:04.105Z,2.90
2023-05-23T10:44:31.615Z,2.30
2023-05-23T10:47:02.349Z,2.60
2023-05-23T10:49:42.033Z,2.60
2023-05-23T10:52:11.099Z,2.95
2023-05-23T10:54:46.425Z,2.95
2023-05-23T10:57:17.280Z,2.58
2023-05-23T10:59:45.616Z,2.63
2023-05-23T11:02:17.098Z,2.90
2023-05-23T11:04:44.212Z,2.72
2023-05-23T11:07:33.343Z,2.80
2023-05-23T11:10:16.821Z,2.72
2023-05-23T11:12:44.773Z,3.03
2023-05-23T11:15:17.373Z,2.50
2023-05-23T11:17:54.972Z,2.83
2023-05-23T11:20:28.347Z,2.72
2023-05-23T11:23:08.336Z,3.00
2023-05-23T11:26:04.019Z,2.53
2023-05-23T11:28:31.035Z,2.78
2023-05-23T11:30:57.621Z,2.70
2023-05-23T11:33:24.381Z,2.45
2023-05-23T11:35:52.039Z,2.45
2023-05-23T11:38:18.683Z,2.50
2023-05-23T11:40:46.946Z,2.80
2023-05-23T11:43:18.279Z,2.63
2023-05-23T11:45:46.864Z,3.08
2023-05-23T11:48:17.844Z,2.50
2023-05-23T11:50:50.829Z,2.60
2023-05-23T11:53:20.876Z,2.90
2023-05-23T11:55:58.334Z,2.45
2023-05-23T11:58:34.913Z,2.80
2023-05-23T12:01:12.818Z,2.80
2023-05-23T12:03:51.351Z,2.80
2023-05-23T12:06:23.630Z,2.60
2023-05-23T12:08:52.350Z,2.53
2023-05-23T12:11:19.119Z,2.70
2023-05-23T12:13:45.838Z,2.10
2023-05-23T12:16:15.096Z,2.63
2023-05-23T12:18:43.334Z,2.65
2023-05-23T12:21:10.545Z,2.50
2023-05-23T12:23:37.829Z,2.65
2023-05-23T12:26:10.328Z,2.72
2023-05-23T12:28:38.949Z,2.80
2023-05-23T12:31:38.995Z,2.63
2023-05-23T12:34:05.652Z,2.60
2023-05-23T12:36:32.540Z,3.50
2023-05-23T12:39:03.837Z,2.72
2023-05-23T12:41:30.542Z,2.85
2023-05-23T12:43:57.300Z,3.22
2023-05-23T12:46:25.187Z,2.95
2023-05-23T12:48:52.934Z,2.70
2023-05-23T12:51:20.044Z,3.20
2023-05-23T12:53:47.014Z,3.40
2023-05-23T12:56:13.684Z,3.03
2023-05-23T12:58:40.283Z,3.17
2023-05-23T13:01:06.887Z,2.90
2023-05-23T13:03:33.535Z,3.00
2023-05-23T13:06:00.204Z,2.80
2023-05-23T13:08:27.626Z,2.67
2023-05-23T13:10:54.463Z,2.78
2023-05-23T13:13:21.198Z,3.97
2023-05-23T13:15:48.947Z,3.33
2023-05-23T13:18:17.554Z,3.88
2023-05-23T13:20:44.124Z,3.78
2023-05-23T13:23:10.857Z,3.72
2023-05-23T13:25:37.446Z,4.10
2023-05-23T13:28:04.120Z,3.67
2023-05-23T13:30:31.600Z,4.13
2023-05-23T13:32:58.298Z,3.70
2023-05-23T13:35:24.942Z,2.90
2023-05-23T13:37:51.762Z,2.60
2023-05-23T13:40:21.040Z,2.55
2023-05-23T13:42:49.543Z,2.97
2023-05-23T13:45:16.149Z,3.58
2023-05-23T13:47:42.751Z,3.17
2023-05-23T13:50:09.954Z,3.33
2023-05-23T13:52:36.603Z,2.33
2023-05-23T13:55:04.823Z,2.40
2023-05-23T13:57:31.738Z,2.42
2023-05-23T13:59:58.341Z,2.15
2023-05-23T14:02:24.945Z,2.33
2023-05-23T14:04:52.007Z,2.63
2023-05-23T14:07:18.969Z,2.63
2023-05-23T14:09:45.704Z,2.53
2023-05-23T14:12:12.362Z,2.28
2023-05-23T14:14:39.450Z,2.30
2023-05-23T14:17:14.446Z,2.55
2023-05-23T14:19:41.198Z,2.10
2023-05-23T14:22:07.888Z,2.20
2023-05-23T14:24:34.540Z,2.05
2023-05-23T14:27:02.556Z,2.25
2023-05-23T14:29:29.217Z,2.20
2023-05-23T14:31:56.026Z,2.47
2023-05-23T14:34:22.691Z,3.17
2023-05-23T14:36:49.227Z,3.38
2023-05-23T14:39:16.349Z,2.40
2023-05-23T14:41:43.180Z,3.05
2023-05-23T14:44:09.797Z,2.92
2023-05-23T14:46:36.435Z,4.15
2023-05-23T14:49:03.093Z,3.72
2023-05-23T14:51:44.072Z,4.78
2023-05-23T14:54:12.083Z,4.40
2023-05-23T14:56:41.102Z,5.85
2023-05-23T14:59:08.148Z,4.15
2023-05-23T15:01:36.083Z,4.53
2023-05-23T15:04:05.689Z,6.00
2023-05-23T15:06:32.379Z,6.82
2023-05-23T15:08:59.001Z,4.72
2023-05-23T15:11:27.456Z,3.28
2023-05-23T15:13:54.377Z,5.43
2023-05-23T15:16:21.933Z,5.68
2023-05-23T15:18:48.801Z,5.00
2023-05-23T15:21:15.582Z,5.22
2023-05-23T15:23:42.250Z,7.05
2023-05-23T15:26:08.869Z,5.38
2023-05-23T15:28:35.425Z,7.00
2023-05-23T15:31:02.056Z,7.18
2023-05-23T15:33:28.686Z,5.72
2023-05-23T15:35:57.810Z,6.07
2023-05-23T15:38:24.395Z,6.28
2023-05-23T15:40:54.457Z,7.65
2023-05-23T15:43:21.114Z,6.15
2023-05-23T15:45:49.902Z,7.13
2023-05-23T15:48:16.672Z,6.10
2023-05-23T15:50:43.930Z,4.93
2023-05-23T15:53:10.869Z,5.82
2023-05-23T15:55:39.755Z,6.10
2023-05-23T15:58:08.003Z,5.45
2023-05-23T16:00:34.560Z,5.43
2023-05-23T16:03:01.211Z,4.82
2023-05-23T16:05:27.910Z,4.50
2023-05-23T16:07:54.791Z,5.00
2023-05-23T16:10:21.530Z,4.78
2023-05-23T16:12:48.127Z,4.50
2023-05-23T16:15:14.695Z,4.63
2023-05-23T16:17:41.288Z,4.93
2023-05-23T16:20:08.446Z,4.93
2023-05-23T16:22:35.062Z,4.70
2023-05-23T16:25:01.721Z,4.25
2023-05-23T16:27:28.388Z,6.30
2023-05-23T16:29:54.943Z,5.40
2023-05-23T16:32:21.560Z,5.55
2023-05-23T16:34:52.893Z,6.47
2023-05-23T16:37:21.116Z,4.85
2023-05-23T16:39:47.752Z,6.20
2023-05-23T16:42:14.481Z,5.53
2023-05-23T16:44:41.783Z,5.00
2023-05-23T16:47:08.442Z,4.75
2023-05-23T16:49:35.018Z,5.15
2023-05-23T16:52:01.703Z,4.90
2023-05-23T16:54:28.450Z,5.47
2023-05-23T16:56:55.074Z,5.38
2023-05-23T16:59:21.666Z,5.57
2023-05-23T17:01:48.355Z,6.15
2023-05-23T17:04:15.036Z,5.65
2023-05-23T17:06:41.650Z,4.25
2023-05-23T17:09:08.446Z,5.00
2023-05-23T17:11:35.127Z,4.47
2023-05-23T17:14:01.855Z,4.60
2023-05-23T17:16:33.192Z,4.65
2023-05-23T17:19:03.101Z,4.57
2023-05-23T17:21:29.718Z,4.38
2023-05-23T17:23:56.252Z,4.07
2023-05-23T17:26:22.887Z,4.63
2023-05-23T17:28:49.445Z,4.13
2023-05-23T17:31:16.336Z,4.10
2023-05-23T17:33:42.970Z,5.00
2023-05-23T17:36:09.892Z,3.97
2023-05-23T17:38:36.692Z,5.00
2023-05-23T17:41:03.832Z,4.53
2023-05-23T17:43:30.657Z,4.60
2023-05-23T17:45:58.147Z,3.60
2023-05-23T17:48:38.214Z,4.78
2023-05-23T17:51:11.445Z,4.45
2023-05-23T17:53:41.311Z,4.88
2023-05-23T17:56:11.516Z,4.53
2023-05-23T17:58:39.335Z,3.97
2023-05-23T18:01:07.920Z,5.05
2023-05-23T18:03:34.635Z,4.40
2023-05-23T18:06:01.171Z,4.10
2023-05-23T18:08:27.982Z,3.88
2023-05-23T18:10:54.597Z,4.57
2023-05-23T18:13:21.412Z,3.75
2023-05-23T18:15:47.972Z,4.03
2023-05-23T18:18:16.426Z,4.15
2023-05-23T18:20:43.337Z,4.97
2023-05-23T18:23:10.193Z,4.30
2023-05-23T18:25:36.733Z,4.93
2023-05-23T18:28:03.294Z,4.82
2023-05-23T18:30:29.864Z,5.10
2023-05-23T18:32:56.628Z,5.03
2023-05-23T18:35:23.364Z,4.50
2023-05-23T18:37:50.029Z,4.82
2023-05-23T18:40:16.782Z,4.55
2023-05-23T18:42:43.380Z,5.40
2023-05-23T18:45:10.635Z,5.00
2023-05-23T18:47:37.284Z,5.18
2023-05-23T18:50:03.992Z,4.80
2023-05-23T18:52:33.513Z,5.82
2023-05-23T18:55:00.109Z,4.85
2023-05-23T18:57:26.793Z,6.00
2023-05-23T18:59:53.407Z,5.85
2023-05-23T19:02:20.282Z,5.15
2023-05-23T19:04:47.020Z,5.10
2023-05-23T19:07:13.704Z,5.35
2023-05-23T19:09:40.535Z,7.80
2023-05-23T19:12:07.278Z,5.97
2023-05-23T19:14:33.896Z,6.05
2023-05-23T19:17:00.602Z,6.05
2023-05-23T19:19:30.031Z,6.10
2023-05-23T19:21:58.261Z,6.07
2023-05-23T19:24:24.862Z,5.40
2023-05-23T19:26:51.482Z,4.57
2023-05-23T19:29:18.074Z,4.70
2023-05-23T19:31:44.808Z,5.13
2023-05-23T19:34:12.082Z,4.40
2023-05-23T19:36:38.676Z,4.35
2023-05-23T19:39:05.247Z,4.55
2023-05-23T19:41:32.855Z,4.53
2023-05-23T19:43:59.884Z,5.65
2023-05-23T19:46:27.404Z,5.32
2023-05-23T19:48:54.776Z,4.68
2023-05-23T19:51:21.387Z,5.15
2023-05-23T19:53:47.991Z,5.80
2023-05-23T19:56:14.616Z,4.63
2023-05-23T19:58:41.195Z,4.72
2023-05-23T20:01:07.809Z,5.05
2023-05-23T20:03:34.432Z,4.57
2023-05-23T20:06:01.469Z,4.43
2023-05-23T20:08:28.137Z,3.72
2023-05-23T20:10:55.903Z,4.60
2023-05-23T20:13:22.471Z,5.50
2023-05-23T20:15:49.060Z,4.78
2023-05-23T20:18:15.826Z,4.45
2023-05-23T20:20:42.558Z,5.03
2023-05-23T20:23:09.660Z,5.15
2023-05-23T20:25:36.414Z,4.70
2023-05-23T20:28:03.081Z,4.93
2023-05-23T20:30:29.677Z,4.32
2023-05-23T20:32:56.296Z,4.40
2023-05-23T20:35:23.702Z,4.28
2023-05-23T20:37:53.686Z,5.68
2023-05-23T20:40:20.878Z,4.47
2023-05-23T20:42:47.429Z,3.78
2023-05-23T20:45:15.449Z,4.18
2023-05-23T20:47:42.627Z,3.88
2023-05-23T20:50:10.838Z,4.40
2023-05-23T20:52:39.583Z,4.35
2023-05-23T20:55:07.589Z,4.50
2023-05-23T20:57:36.627Z,4.32
2023-05-23T21:00:14.516Z,3.50
2023-05-23T21:02:42.127Z,3.72
2023-05-23T21:05:10.328Z,4.75
2023-05-23T21:07:37.098Z,4.50
2023-05-23T21:10:04.546Z,3.88
2023-05-23T21:12:31.131Z,3.42
2023-05-23T21:14:57.677Z,4.75
2023-05-23T21:17:24.952Z,4.13
2023-05-23T21:19:51.771Z,3.70
2023-05-23T21:22:18.330Z,4.40
2023-05-23T21:24:44.935Z,4.15
2023-05-23T21:27:11.797Z,3.92
2023-05-23T21:29:38.513Z,3.67
2023-05-23T21:32:05.395Z,3.30
2023-05-23T21:34:31.960Z,3.40
2023-05-23T21:36:58.555Z,4.28
2023-05-23T21:39:26.165Z,3.83
2023-05-23T21:41:55.426Z,3.58
2023-05-23T21:44:21.966Z,3.80
2023-05-23T21:46:48.898Z,3.65
2023-05-23T21:49:15.648Z,4.20
2023-05-23T21:51:42.402Z,4.07
2023-05-23T21:54:09.008Z,4.47
2023-05-23T21:56:35.534Z,4.15
2023-05-23T21:59:02.105Z,3.90
2023-05-23T22:01:28.728Z,4.68
2023-05-23T22:03:55.416Z,4.75
2023-05-23T22:06:22.019Z,4.20
2023-05-23T22:08:48.652Z,4.07
2023-05-23T22:11:15.645Z,4.40
2023-05-23T22:13:42.595Z,4.35
2023-05-23T22:16:09.242Z,3.67
2023-05-23T22:18:50.962Z,4.15
2023-05-23T22:21:18.441Z,3.50
2023-05-23T22:23:45.357Z,3.50
2023-05-23T22:26:12.651Z,3.40
2023-05-23T22:28:39.447Z,3.55
2023-05-23T22:31:06.623Z,3.35
2023-05-23T22:33:33.337Z,3.20
2023-05-23T22:36:00.022Z,3.70
2023-05-23T22:38:26.699Z,3.55
2023-05-23T22:40:53.280Z,3.30
2023-05-23T22:43:21.906Z,4.03
2023-05-23T22:45:50.145Z,4.32
2023-05-23T22:48:19.341Z,4.40
2023-05-23T22:50:46.779Z,4.07
2023-05-23T22:53:16.658Z,4.05
2023-05-23T22:55:43.313Z,4.70
2023-05-23T22:58:09.903Z,3.75
2023-05-23T23:00:36.704Z,4.07
2023-05-23T23:03:03.934Z,4.47
2023-05-23T23:05:30.939Z,3.78
2023-05-23T23:07:57.592Z,4.13
2023-05-23T23:10:24.212Z,3.70
2023-05-23T23:12:50.968Z,3.25
2023-05-23T23:15:17.677Z,4.43
2023-05-23T23:17:44.485Z,3.90
2023-05-23T23:20:12.653Z,4.20
2023-05-23T23:22:39.505Z,3.95
2023-05-23T23:25:10.592Z,3.20
2023-05-23T23:27:38.270Z,3.72
2023-05-23T23:30:08.568Z,4.43
2023-05-23T23:32:35.409Z,4.40
2023-05-23T23:35:02.177Z,3.67
2023-05-23T23:37:28.697Z,3.33
2023-05-23T23:39:55.230Z,3.55
2023-05-23T23:42:21.822Z,3.50
2023-05-23T23:44:48.654Z,4.85
2023-05-23T23:47:15.222Z,4.60
2023-05-23T23:49:42.305Z,4.40
2023-05-23T23:52:09.284Z,4.60
2023-05-23T23:54:35.879Z,4.38
2023-05-23T23:57:02.481Z,5.78
2023-05-23T23:59:29.083Z,4.20
